sensor_id;sensor_type;location;lat;lon;timestamp;P1;durP1;ratioP1;P2;durP2;ratioP2
82125;SDS011;71668;51.400;6.758;2024-02-21T00:00:51;26.23;;;14.90;;
82125;SDS011;71668;51.400;6.758;2024-02-21T00:03:18;24.87;;;14.83;;
82125;SDS011;71668;51.400;6.758;2024-02-21T00:05:45;27.30;;;14.77;;
82125;SDS011;71668;51.400;6.758;2024-02-21T00:08:12;25.40;;;14.63;;
82125;SDS011;71668;51.400;6.758;2024-02-21T00:10:39;23.87;;;14.87;;
82125;SDS011;71668;51.400;6.758;2024-02-21T00:13:06;33.07;;;15.83;;
82125;SDS011;71668;51.400;6.758;2024-02-21T00:15:33;25.70;;;15.00;;
82125;SDS011;71668;51.400;6.758;2024-02-21T00:18:00;28.50;;;15.33;;
82125;SDS011;71668;51.400;6.758;2024-02-21T00:20:27;27.80;;;15.40;;
82125;SDS011;71668;51.400;6.758;2024-02-21T00:22:53;28.00;;;15.63;;
82125;SDS011;71668;51.400;6.758;2024-02-21T00:25:21;24.33;;;14.27;;
82125;SDS011;71668;51.400;6.758;2024-02-21T00:27:48;24.40;;;13.47;;
82125;SDS011;71668;51.400;6.758;2024-02-21T00:30:14;21.57;;;13.10;;
82125;SDS011;71668;51.400;6.758;2024-02-21T00:32:42;19.57;;;13.57;;
82125;SDS011;71668;51.400;6.758;2024-02-21T00:35:09;22.33;;;12.80;;
82125;SDS011;71668;51.400;6.758;2024-02-21T00:37:36;23.13;;;14.00;;
82125;SDS011;71668;51.400;6.758;2024-02-21T00:40:03;21.83;;;12.70;;
82125;SDS011;71668;51.400;6.758;2024-02-21T00:42:38;20.20;;;12.23;;
82125;SDS011;71668;51.400;6.758;2024-02-21T00:45:06;25.33;;;14.00;;
82125;SDS011;71668;51.400;6.758;2024-02-21T00:47:34;26.10;;;14.87;;
82125;SDS011;71668;51.400;6.758;2024-02-21T00:53:12;19.80;;;13.57;;
82125;SDS011;71668;51.400;6.758;2024-02-21T00:55:49;28.10;;;13.80;;
82125;SDS011;71668;51.400;6.758;2024-02-21T00:58:16;21.30;;;13.23;;
82125;SDS011;71668;51.400;6.758;2024-02-21T01:00:43;25.63;;;13.30;;
82125;SDS011;71668;51.400;6.758;2024-02-21T01:03:10;23.83;;;12.97;;
82125;SDS011;71668;51.400;6.758;2024-02-21T01:05:37;21.77;;;13.13;;
82125;SDS011;71668;51.400;6.758;2024-02-21T01:08:04;24.93;;;12.90;;
82125;SDS011;71668;51.400;6.758;2024-02-21T01:10:31;27.67;;;14.40;;
82125;SDS011;71668;51.400;6.758;2024-02-21T01:13:08;28.13;;;14.97;;
82125;SDS011;71668;51.400;6.758;2024-02-21T01:15:35;24.73;;;14.77;;
82125;SDS011;71668;51.400;6.758;2024-02-21T01:18:02;24.13;;;14.07;;
82125;SDS011;71668;51.400;6.758;2024-02-21T01:20:29;22.43;;;14.00;;
82125;SDS011;71668;51.400;6.758;2024-02-21T01:22:58;22.93;;;13.80;;
82125;SDS011;71668;51.400;6.758;2024-02-21T01:25:25;25.70;;;14.27;;
82125;SDS011;71668;51.400;6.758;2024-02-21T01:27:51;28.00;;;15.23;;
82125;SDS011;71668;51.400;6.758;2024-02-21T01:30:18;23.73;;;13.37;;
82125;SDS011;71668;51.400;6.758;2024-02-21T01:32:45;24.03;;;14.00;;
82125;SDS011;71668;51.400;6.758;2024-02-21T01:35:12;28.70;;;14.03;;
82125;SDS011;71668;51.400;6.758;2024-02-21T01:37:39;23.03;;;12.67;;
82125;SDS011;71668;51.400;6.758;2024-02-21T01:40:06;26.60;;;13.83;;
82125;SDS011;71668;51.400;6.758;2024-02-21T01:42:37;24.70;;;13.07;;
82125;SDS011;71668;51.400;6.758;2024-02-21T01:45:05;23.33;;;13.00;;
82125;SDS011;71668;51.400;6.758;2024-02-21T01:47:32;25.67;;;13.37;;
82125;SDS011;71668;51.400;6.758;2024-02-21T01:49:59;18.67;;;12.37;;
82125;SDS011;71668;51.400;6.758;2024-02-21T01:52:26;22.50;;;13.43;;
82125;SDS011;71668;51.400;6.758;2024-02-21T01:54:54;22.87;;;12.37;;
82125;SDS011;71668;51.400;6.758;2024-02-21T01:57:21;20.90;;;12.20;;
82125;SDS011;71668;51.400;6.758;2024-02-21T01:59:48;18.77;;;11.37;;
82125;SDS011;71668;51.400;6.758;2024-02-21T02:02:16;18.87;;;11.63;;
82125;SDS011;71668;51.400;6.758;2024-02-21T02:04:44;17.47;;;11.53;;
82125;SDS011;71668;51.400;6.758;2024-02-21T02:07:12;19.23;;;10.83;;
82125;SDS011;71668;51.400;6.758;2024-02-21T02:09:39;21.23;;;12.00;;
82125;SDS011;71668;51.400;6.758;2024-02-21T02:12:05;24.33;;;11.40;;
82125;SDS011;71668;51.400;6.758;2024-02-21T02:14:32;21.00;;;11.37;;
82125;SDS011;71668;51.400;6.758;2024-02-21T02:16:59;17.63;;;11.10;;
82125;SDS011;71668;51.400;6.758;2024-02-21T02:19:26;21.50;;;11.13;;
82125;SDS011;71668;51.400;6.758;2024-02-21T02:21:56;20.17;;;11.87;;
82125;SDS011;71668;51.400;6.758;2024-02-21T02:24:28;18.37;;;10.97;;
82125;SDS011;71668;51.400;6.758;2024-02-21T02:26:55;19.80;;;10.57;;
82125;SDS011;71668;51.400;6.758;2024-02-21T02:29:22;20.73;;;11.63;;
82125;SDS011;71668;51.400;6.758;2024-02-21T02:31:49;23.47;;;11.73;;
82125;SDS011;71668;51.400;6.758;2024-02-21T02:34:16;20.23;;;11.00;;
82125;SDS011;71668;51.400;6.758;2024-02-21T02:36:43;22.73;;;10.93;;
82125;SDS011;71668;51.400;6.758;2024-02-21T02:39:10;19.57;;;10.33;;
82125;SDS011;71668;51.400;6.758;2024-02-21T02:41:37;18.20;;;10.90;;
82125;SDS011;71668;51.400;6.758;2024-02-21T02:44:03;18.00;;;11.03;;
82125;SDS011;71668;51.400;6.758;2024-02-21T02:46:30;18.77;;;11.10;;
82125;SDS011;71668;51.400;6.758;2024-02-21T02:48:57;20.67;;;11.03;;
82125;SDS011;71668;51.400;6.758;2024-02-21T02:51:24;23.23;;;11.20;;
82125;SDS011;71668;51.400;6.758;2024-02-21T02:53:51;18.83;;;10.70;;
82125;SDS011;71668;51.400;6.758;2024-02-21T02:56:17;19.50;;;10.30;;
82125;SDS011;71668;51.400;6.758;2024-02-21T02:58:44;15.27;;;10.13;;
82125;SDS011;71668;51.400;6.758;2024-02-21T03:01:11;18.67;;;10.23;;
82125;SDS011;71668;51.400;6.758;2024-02-21T03:03:38;23.53;;;11.00;;
82125;SDS011;71668;51.400;6.758;2024-02-21T03:06:05;19.70;;;9.93;;
82125;SDS011;71668;51.400;6.758;2024-02-21T03:08:32;19.83;;;10.20;;
82125;SDS011;71668;51.400;6.758;2024-02-21T03:11:00;19.27;;;10.47;;
82125;SDS011;71668;51.400;6.758;2024-02-21T03:13:27;21.43;;;9.80;;
82125;SDS011;71668;51.400;6.758;2024-02-21T03:15:54;19.20;;;10.73;;
82125;SDS011;71668;51.400;6.758;2024-02-21T03:18:21;18.23;;;9.40;;
82125;SDS011;71668;51.400;6.758;2024-02-21T03:20:48;20.13;;;10.27;;
82125;SDS011;71668;51.400;6.758;2024-02-21T03:23:15;18.07;;;9.77;;
82125;SDS011;71668;51.400;6.758;2024-02-21T03:25:41;18.13;;;10.70;;
82125;SDS011;71668;51.400;6.758;2024-02-21T03:28:08;18.23;;;9.33;;
82125;SDS011;71668;51.400;6.758;2024-02-21T03:30:35;15.87;;;9.90;;
82125;SDS011;71668;51.400;6.758;2024-02-21T03:33:02;17.57;;;9.00;;
82125;SDS011;71668;51.400;6.758;2024-02-21T03:35:32;16.40;;;8.90;;
82125;SDS011;71668;51.400;6.758;2024-02-21T03:37:59;17.43;;;9.73;;
82125;SDS011;71668;51.400;6.758;2024-02-21T03:40:26;17.43;;;9.43;;
82125;SDS011;71668;51.400;6.758;2024-02-21T03:42:53;20.43;;;9.40;;
82125;SDS011;71668;51.400;6.758;2024-02-21T03:45:19;17.27;;;8.80;;
82125;SDS011;71668;51.400;6.758;2024-02-21T03:47:46;14.87;;;10.00;;
82125;SDS011;71668;51.400;6.758;2024-02-21T03:50:13;18.33;;;9.73;;
82125;SDS011;71668;51.400;6.758;2024-02-21T03:52:40;19.00;;;10.70;;
82125;SDS011;71668;51.400;6.758;2024-02-21T03:55:07;17.07;;;10.23;;
82125;SDS011;71668;51.400;6.758;2024-02-21T03:57:34;18.87;;;9.10;;
82125;SDS011;71668;51.400;6.758;2024-02-21T04:00:01;16.87;;;9.40;;
82125;SDS011;71668;51.400;6.758;2024-02-21T04:02:32;16.13;;;9.60;;
82125;SDS011;71668;51.400;6.758;2024-02-21T04:04:59;18.30;;;10.10;;
82125;SDS011;71668;51.400;6.758;2024-02-21T04:07:26;19.50;;;10.93;;
82125;SDS011;71668;51.400;6.758;2024-02-21T04:09:53;17.23;;;10.17;;
82125;SDS011;71668;51.400;6.758;2024-02-21T04:12:20;20.67;;;9.83;;
82125;SDS011;71668;51.400;6.758;2024-02-21T04:14:47;19.27;;;11.07;;
82125;SDS011;71668;51.400;6.758;2024-02-21T04:17:13;19.70;;;9.63;;
82125;SDS011;71668;51.400;6.758;2024-02-21T04:19:40;17.40;;;9.67;;
82125;SDS011;71668;51.400;6.758;2024-02-21T04:22:07;19.63;;;10.23;;
82125;SDS011;71668;51.400;6.758;2024-02-21T04:24:34;15.80;;;9.70;;
82125;SDS011;71668;51.400;6.758;2024-02-21T04:27:01;19.33;;;9.60;;
82125;SDS011;71668;51.400;6.758;2024-02-21T04:29:28;13.90;;;8.77;;
82125;SDS011;71668;51.400;6.758;2024-02-21T04:31:55;19.97;;;9.80;;
82125;SDS011;71668;51.400;6.758;2024-02-21T04:34:22;18.30;;;9.37;;
82125;SDS011;71668;51.400;6.758;2024-02-21T04:36:49;17.43;;;9.23;;
82125;SDS011;71668;51.400;6.758;2024-02-21T04:39:16;16.07;;;8.77;;
82125;SDS011;71668;51.400;6.758;2024-02-21T04:41:43;14.43;;;8.80;;
82125;SDS011;71668;51.400;6.758;2024-02-21T04:44:10;14.23;;;7.80;;
82125;SDS011;71668;51.400;6.758;2024-02-21T04:46:37;15.53;;;8.73;;
82125;SDS011;71668;51.400;6.758;2024-02-21T04:49:04;14.97;;;8.43;;
82125;SDS011;71668;51.400;6.758;2024-02-21T04:51:30;14.20;;;8.50;;
82125;SDS011;71668;51.400;6.758;2024-02-21T04:54:00;17.93;;;9.27;;
82125;SDS011;71668;51.400;6.758;2024-02-21T04:56:27;15.77;;;8.60;;
82125;SDS011;71668;51.400;6.758;2024-02-21T04:58:54;13.47;;;8.30;;
82125;SDS011;71668;51.400;6.758;2024-02-21T05:01:21;12.97;;;8.13;;
82125;SDS011;71668;51.400;6.758;2024-02-21T05:03:47;15.70;;;9.00;;
82125;SDS011;71668;51.400;6.758;2024-02-21T05:06:15;13.20;;;7.83;;
82125;SDS011;71668;51.400;6.758;2024-02-21T05:08:41;17.20;;;7.97;;
82125;SDS011;71668;51.400;6.758;2024-02-21T05:11:08;17.67;;;9.20;;
82125;SDS011;71668;51.400;6.758;2024-02-21T05:13:35;16.67;;;8.43;;
82125;SDS011;71668;51.400;6.758;2024-02-21T05:16:02;18.00;;;8.30;;
82125;SDS011;71668;51.400;6.758;2024-02-21T05:18:29;16.90;;;7.93;;
82125;SDS011;71668;51.400;6.758;2024-02-21T05:20:56;15.87;;;8.00;;
82125;SDS011;71668;51.400;6.758;2024-02-21T05:23:23;15.40;;;7.10;;
82125;SDS011;71668;51.400;6.758;2024-02-21T05:25:50;16.50;;;8.70;;
82125;SDS011;71668;51.400;6.758;2024-02-21T05:28:17;15.33;;;7.70;;
82125;SDS011;71668;51.400;6.758;2024-02-21T05:30:44;13.57;;;7.60;;
82125;SDS011;71668;51.400;6.758;2024-02-21T05:33:11;13.53;;;7.60;;
82125;SDS011;71668;51.400;6.758;2024-02-21T05:35:39;14.90;;;8.53;;
82125;SDS011;71668;51.400;6.758;2024-02-21T05:38:06;14.00;;;7.77;;
82125;SDS011;71668;51.400;6.758;2024-02-21T05:40:38;14.40;;;7.93;;
82125;SDS011;71668;51.400;6.758;2024-02-21T05:43:05;13.67;;;7.60;;
82125;SDS011;71668;51.400;6.758;2024-02-21T05:45:33;16.90;;;7.67;;
82125;SDS011;71668;51.400;6.758;2024-02-21T05:48:00;13.30;;;7.00;;
82125;SDS011;71668;51.400;6.758;2024-02-21T05:50:27;14.60;;;7.47;;
82125;SDS011;71668;51.400;6.758;2024-02-21T05:52:54;15.20;;;7.53;;
82125;SDS011;71668;51.400;6.758;2024-02-21T05:55:22;16.30;;;7.50;;
82125;SDS011;71668;51.400;6.758;2024-02-21T05:57:49;12.37;;;7.07;;
82125;SDS011;71668;51.400;6.758;2024-02-21T06:00:19;13.73;;;7.47;;
82125;SDS011;71668;51.400;6.758;2024-02-21T06:02:46;15.57;;;7.00;;
82125;SDS011;71668;51.400;6.758;2024-02-21T06:05:13;18.57;;;8.17;;
82125;SDS011;71668;51.400;6.758;2024-02-21T06:07:40;14.30;;;7.10;;
82125;SDS011;71668;51.400;6.758;2024-02-21T06:10:07;12.27;;;7.50;;
82125;SDS011;71668;51.400;6.758;2024-02-21T06:12:34;16.13;;;7.33;;
82125;SDS011;71668;51.400;6.758;2024-02-21T06:15:03;13.97;;;6.70;;
82125;SDS011;71668;51.400;6.758;2024-02-21T06:17:32;12.77;;;6.73;;
82125;SDS011;71668;51.400;6.758;2024-02-21T06:19:59;13.77;;;6.97;;
82125;SDS011;71668;51.400;6.758;2024-02-21T06:22:26;17.43;;;7.27;;
82125;SDS011;71668;51.400;6.758;2024-02-21T06:24:53;14.33;;;6.90;;
82125;SDS011;71668;51.400;6.758;2024-02-21T06:27:20;13.90;;;7.17;;
82125;SDS011;71668;51.400;6.758;2024-02-21T06:29:50;14.73;;;6.80;;
82125;SDS011;71668;51.400;6.758;2024-02-21T06:32:17;14.67;;;7.40;;
82125;SDS011;71668;51.400;6.758;2024-02-21T06:34:44;17.57;;;7.40;;
82125;SDS011;71668;51.400;6.758;2024-02-21T06:37:11;16.13;;;7.50;;
82125;SDS011;71668;51.400;6.758;2024-02-21T06:39:38;16.27;;;7.20;;
82125;SDS011;71668;51.400;6.758;2024-02-21T06:42:06;14.53;;;6.63;;
82125;SDS011;71668;51.400;6.758;2024-02-21T06:44:33;13.07;;;7.03;;
82125;SDS011;71668;51.400;6.758;2024-02-21T06:47:06;18.97;;;7.57;;
82125;SDS011;71668;51.400;6.758;2024-02-21T06:49:34;19.30;;;7.93;;
82125;SDS011;71668;51.400;6.758;2024-02-21T06:52:04;13.63;;;7.77;;
82125;SDS011;71668;51.400;6.758;2024-02-21T06:54:31;14.27;;;7.43;;
82125;SDS011;71668;51.400;6.758;2024-02-21T06:56:58;11.93;;;6.97;;
82125;SDS011;71668;51.400;6.758;2024-02-21T06:59:25;14.03;;;8.03;;
82125;SDS011;71668;51.400;6.758;2024-02-21T07:01:53;12.93;;;7.37;;
82125;SDS011;71668;51.400;6.758;2024-02-21T07:04:21;15.07;;;6.70;;
82125;SDS011;71668;51.400;6.758;2024-02-21T07:06:49;13.57;;;6.67;;
82125;SDS011;71668;51.400;6.758;2024-02-21T07:09:16;13.90;;;6.93;;
82125;SDS011;71668;51.400;6.758;2024-02-21T07:11:42;12.37;;;6.87;;
82125;SDS011;71668;51.400;6.758;2024-02-21T07:14:09;10.27;;;6.60;;
82125;SDS011;71668;51.400;6.758;2024-02-21T07:16:36;13.10;;;6.50;;
82125;SDS011;71668;51.400;6.758;2024-02-21T07:19:03;14.03;;;6.77;;
82125;SDS011;71668;51.400;6.758;2024-02-21T07:21:30;15.37;;;6.17;;
82125;SDS011;71668;51.400;6.758;2024-02-21T07:23:57;10.90;;;6.60;;
82125;SDS011;71668;51.400;6.758;2024-02-21T07:26:24;11.87;;;6.83;;
82125;SDS011;71668;51.400;6.758;2024-02-21T07:28:51;12.70;;;6.33;;
82125;SDS011;71668;51.400;6.758;2024-02-21T07:31:18;10.00;;;5.70;;
82125;SDS011;71668;51.400;6.758;2024-02-21T07:33:45;12.57;;;6.67;;
82125;SDS011;71668;51.400;6.758;2024-02-21T07:36:11;12.13;;;5.70;;
82125;SDS011;71668;51.400;6.758;2024-02-21T07:38:39;10.30;;;6.27;;
82125;SDS011;71668;51.400;6.758;2024-02-21T07:41:14;10.57;;;5.97;;
82125;SDS011;71668;51.400;6.758;2024-02-21T07:43:41;13.67;;;6.63;;
82125;SDS011;71668;51.400;6.758;2024-02-21T07:46:08;10.37;;;5.97;;
82125;SDS011;71668;51.400;6.758;2024-02-21T07:48:35;12.90;;;5.67;;
82125;SDS011;71668;51.400;6.758;2024-02-21T07:51:02;11.43;;;5.20;;
82125;SDS011;71668;51.400;6.758;2024-02-21T07:53:29;8.13;;;5.60;;
82125;SDS011;71668;51.400;6.758;2024-02-21T07:55:56;8.20;;;5.77;;
82125;SDS011;71668;51.400;6.758;2024-02-21T07:58:23;11.77;;;5.60;;
82125;SDS011;71668;51.400;6.758;2024-02-21T08:00:50;11.33;;;5.73;;
82125;SDS011;71668;51.400;6.758;2024-02-21T08:03:16;15.97;;;5.47;;
82125;SDS011;71668;51.400;6.758;2024-02-21T08:05:44;7.93;;;5.13;;
82125;SDS011;71668;51.400;6.758;2024-02-21T08:08:11;12.57;;;5.03;;
82125;SDS011;71668;51.400;6.758;2024-02-21T08:10:39;9.43;;;5.10;;
82125;SDS011;71668;51.400;6.758;2024-02-21T08:13:06;12.27;;;4.87;;
82125;SDS011;71668;51.400;6.758;2024-02-21T08:15:33;13.70;;;5.47;;
82125;SDS011;71668;51.400;6.758;2024-02-21T08:18:01;12.17;;;5.67;;
82125;SDS011;71668;51.400;6.758;2024-02-21T08:20:30;14.67;;;5.60;;
82125;SDS011;71668;51.400;6.758;2024-02-21T08:22:57;16.47;;;6.03;;
82125;SDS011;71668;51.400;6.758;2024-02-21T08:25:24;11.33;;;5.83;;
82125;SDS011;71668;51.400;6.758;2024-02-21T08:27:51;10.47;;;5.67;;
82125;SDS011;71668;51.400;6.758;2024-02-21T08:30:18;12.73;;;6.27;;
82125;SDS011;71668;51.400;6.758;2024-02-21T08:32:44;20.90;;;8.40;;
82125;SDS011;71668;51.400;6.758;2024-02-21T08:35:11;40.17;;;15.50;;
82125;SDS011;71668;51.400;6.758;2024-02-21T08:37:39;45.07;;;14.23;;
82125;SDS011;71668;51.400;6.758;2024-02-21T08:40:06;36.73;;;12.53;;
82125;SDS011;71668;51.400;6.758;2024-02-21T08:42:35;30.07;;;12.43;;
82125;SDS011;71668;51.400;6.758;2024-02-21T08:45:03;29.50;;;11.20;;
82125;SDS011;71668;51.400;6.758;2024-02-21T08:47:30;12.83;;;5.60;;
82125;SDS011;71668;51.400;6.758;2024-02-21T08:49:57;13.07;;;5.70;;
82125;SDS011;71668;51.400;6.758;2024-02-21T08:52:25;10.00;;;5.43;;
82125;SDS011;71668;51.400;6.758;2024-02-21T08:54:52;11.50;;;5.43;;
82125;SDS011;71668;51.400;6.758;2024-02-21T08:57:20;13.90;;;5.53;;
82125;SDS011;71668;51.400;6.758;2024-02-21T08:59:47;10.33;;;5.40;;
82125;SDS011;71668;51.400;6.758;2024-02-21T09:02:14;11.97;;;5.87;;
82125;SDS011;71668;51.400;6.758;2024-02-21T09:04:43;10.50;;;5.13;;
82125;SDS011;71668;51.400;6.758;2024-02-21T09:07:11;12.50;;;5.77;;
82125;SDS011;71668;51.400;6.758;2024-02-21T09:09:38;9.70;;;5.00;;
82125;SDS011;71668;51.400;6.758;2024-02-21T09:12:06;9.83;;;4.93;;
82125;SDS011;71668;51.400;6.758;2024-02-21T09:14:33;12.03;;;5.10;;
82125;SDS011;71668;51.400;6.758;2024-02-21T09:17:07;12.00;;;5.60;;
82125;SDS011;71668;51.400;6.758;2024-02-21T09:19:35;11.70;;;5.47;;
82125;SDS011;71668;51.400;6.758;2024-02-21T09:22:02;13.60;;;5.30;;
82125;SDS011;71668;51.400;6.758;2024-02-21T09:24:29;13.10;;;5.17;;
82125;SDS011;71668;51.400;6.758;2024-02-21T09:26:56;13.90;;;5.33;;
82125;SDS011;71668;51.400;6.758;2024-02-21T09:29:25;8.13;;;4.27;;
82125;SDS011;71668;51.400;6.758;2024-02-21T09:31:53;10.63;;;5.53;;
82125;SDS011;71668;51.400;6.758;2024-02-21T09:34:20;12.13;;;4.53;;
82125;SDS011;71668;51.400;6.758;2024-02-21T09:36:48;8.07;;;4.60;;
82125;SDS011;71668;51.400;6.758;2024-02-21T09:39:15;13.83;;;4.57;;
82125;SDS011;71668;51.400;6.758;2024-02-21T09:41:47;10.80;;;4.77;;
82125;SDS011;71668;51.400;6.758;2024-02-21T09:44:21;7.27;;;4.17;;
82125;SDS011;71668;51.400;6.758;2024-02-21T09:46:56;12.07;;;4.47;;
82125;SDS011;71668;51.400;6.758;2024-02-21T09:49:31;10.20;;;3.80;;
82125;SDS011;71668;51.400;6.758;2024-02-21T09:52:02;10.97;;;4.47;;
82125;SDS011;71668;51.400;6.758;2024-02-21T09:54:32;8.23;;;4.23;;
82125;SDS011;71668;51.400;6.758;2024-02-21T09:57:00;9.60;;;4.07;;
82125;SDS011;71668;51.400;6.758;2024-02-21T09:59:28;10.93;;;4.13;;
82125;SDS011;71668;51.400;6.758;2024-02-21T10:01:57;7.93;;;4.13;;
82125;SDS011;71668;51.400;6.758;2024-02-21T10:04:27;7.47;;;3.60;;
82125;SDS011;71668;51.400;6.758;2024-02-21T10:06:54;9.63;;;4.20;;
82125;SDS011;71668;51.400;6.758;2024-02-21T10:11:55;9.40;;;3.83;;
82125;SDS011;71668;51.400;6.758;2024-02-21T10:14:23;9.40;;;3.90;;
82125;SDS011;71668;51.400;6.758;2024-02-21T10:16:56;8.07;;;3.87;;
82125;SDS011;71668;51.400;6.758;2024-02-21T10:19:27;10.00;;;3.83;;
82125;SDS011;71668;51.400;6.758;2024-02-21T10:21:59;10.43;;;3.70;;
82125;SDS011;71668;51.400;6.758;2024-02-21T10:24:33;9.10;;;4.20;;
82125;SDS011;71668;51.400;6.758;2024-02-21T10:29:30;6.10;;;3.90;;
82125;SDS011;71668;51.400;6.758;2024-02-21T10:32:10;9.43;;;4.23;;
82125;SDS011;71668;51.400;6.758;2024-02-21T10:34:40;7.57;;;4.43;;
82125;SDS011;71668;51.400;6.758;2024-02-21T10:37:09;6.63;;;3.83;;
82125;SDS011;71668;51.400;6.758;2024-02-21T10:39:40;8.40;;;4.23;;
82125;SDS011;71668;51.400;6.758;2024-02-21T10:42:10;8.17;;;3.73;;
82125;SDS011;71668;51.400;6.758;2024-02-21T10:44:38;7.77;;;3.40;;
82125;SDS011;71668;51.400;6.758;2024-02-21T10:47:10;7.97;;;3.50;;
82125;SDS011;71668;51.400;6.758;2024-02-21T10:49:40;7.27;;;3.37;;
82125;SDS011;71668;51.400;6.758;2024-02-21T10:52:47;8.63;;;3.77;;
82125;SDS011;71668;51.400;6.758;2024-02-21T10:55:10;10.93;;;3.83;;
82125;SDS011;71668;51.400;6.758;2024-02-21T10:57:46;6.70;;;3.20;;
82125;SDS011;71668;51.400;6.758;2024-02-21T11:00:14;7.73;;;3.73;;
82125;SDS011;71668;51.400;6.758;2024-02-21T11:02:44;9.30;;;4.00;;
82125;SDS011;71668;51.400;6.758;2024-02-21T11:05:13;5.87;;;3.37;;
82125;SDS011;71668;51.400;6.758;2024-02-21T11:07:41;7.07;;;3.73;;
82125;SDS011;71668;51.400;6.758;2024-02-21T11:10:30;9.27;;;4.33;;
82125;SDS011;71668;51.400;6.758;2024-02-21T11:13:08;6.90;;;3.37;;
82125;SDS011;71668;51.400;6.758;2024-02-21T11:15:36;6.93;;;3.23;;
82125;SDS011;71668;51.400;6.758;2024-02-21T11:18:03;5.27;;;2.93;;
82125;SDS011;71668;51.400;6.758;2024-02-21T11:20:37;7.60;;;3.77;;
82125;SDS011;71668;51.400;6.758;2024-02-21T11:23:04;5.47;;;3.00;;
82125;SDS011;71668;51.400;6.758;2024-02-21T11:25:32;6.53;;;3.53;;
82125;SDS011;71668;51.400;6.758;2024-02-21T11:28:00;6.90;;;3.80;;
82125;SDS011;71668;51.400;6.758;2024-02-21T11:30:31;8.70;;;3.40;;
82125;SDS011;71668;51.400;6.758;2024-02-21T11:33:06;8.27;;;3.37;;
82125;SDS011;71668;51.400;6.758;2024-02-21T11:35:34;6.43;;;3.63;;
82125;SDS011;71668;51.400;6.758;2024-02-21T11:38:11;7.23;;;3.87;;
82125;SDS011;71668;51.400;6.758;2024-02-21T11:40:44;7.40;;;3.73;;
82125;SDS011;71668;51.400;6.758;2024-02-21T11:43:12;9.70;;;4.07;;
82125;SDS011;71668;51.400;6.758;2024-02-21T11:45:38;8.70;;;3.80;;
82125;SDS011;71668;51.400;6.758;2024-02-21T11:48:06;10.27;;;4.30;;
82125;SDS011;71668;51.400;6.758;2024-02-21T11:50:36;7.90;;;4.10;;
82125;SDS011;71668;51.400;6.758;2024-02-21T11:53:06;7.07;;;3.87;;
82125;SDS011;71668;51.400;6.758;2024-02-21T11:55:32;7.73;;;4.17;;
82125;SDS011;71668;51.400;6.758;2024-02-21T11:58:01;7.30;;;4.27;;
82125;SDS011;71668;51.400;6.758;2024-02-21T12:00:28;8.97;;;3.73;;
82125;SDS011;71668;51.400;6.758;2024-02-21T12:02:55;6.60;;;3.50;;
82125;SDS011;71668;51.400;6.758;2024-02-21T12:05:28;8.33;;;4.17;;
82125;SDS011;71668;51.400;6.758;2024-02-21T12:07:55;7.60;;;3.67;;
82125;SDS011;71668;51.400;6.758;2024-02-21T12:10:25;9.60;;;4.00;;
82125;SDS011;71668;51.400;6.758;2024-02-21T12:12:53;7.30;;;4.17;;
82125;SDS011;71668;51.400;6.758;2024-02-21T12:15:31;7.13;;;3.93;;
82125;SDS011;71668;51.400;6.758;2024-02-21T12:17:57;7.20;;;4.03;;
82125;SDS011;71668;51.400;6.758;2024-02-21T12:20:26;7.63;;;3.97;;
82125;SDS011;71668;51.400;6.758;2024-02-21T12:22:53;8.57;;;4.00;;
82125;SDS011;71668;51.400;6.758;2024-02-21T12:25:21;9.40;;;3.87;;
82125;SDS011;71668;51.400;6.758;2024-02-21T12:27:49;9.43;;;4.03;;
82125;SDS011;71668;51.400;6.758;2024-02-21T12:30:16;6.00;;;3.67;;
82125;SDS011;71668;51.400;6.758;2024-02-21T12:32:44;7.53;;;4.13;;
82125;SDS011;71668;51.400;6.758;2024-02-21T12:35:11;12.33;;;3.77;;
82125;SDS011;71668;51.400;6.758;2024-02-21T12:37:38;9.47;;;3.63;;
82125;SDS011;71668;51.400;6.758;2024-02-21T12:40:06;9.10;;;3.37;;
82125;SDS011;71668;51.400;6.758;2024-02-21T12:42:33;9.13;;;3.20;;
82125;SDS011;71668;51.400;6.758;2024-02-21T12:45:01;8.20;;;3.57;;
82125;SDS011;71668;51.400;6.758;2024-02-21T12:47:29;9.63;;;3.37;;
82125;SDS011;71668;51.400;6.758;2024-02-21T12:49:56;6.77;;;3.47;;
82125;SDS011;71668;51.400;6.758;2024-02-21T12:52:23;10.43;;;3.47;;
82125;SDS011;71668;51.400;6.758;2024-02-21T12:54:51;9.33;;;3.53;;
82125;SDS011;71668;51.400;6.758;2024-02-21T12:57:18;7.33;;;3.43;;
82125;SDS011;71668;51.400;6.758;2024-02-21T12:59:45;10.77;;;4.10;;
82125;SDS011;71668;51.400;6.758;2024-02-21T13:02:11;7.07;;;3.50;;
82125;SDS011;71668;51.400;6.758;2024-02-21T13:04:38;6.47;;;3.37;;
82125;SDS011;71668;51.400;6.758;2024-02-21T13:07:07;4.67;;;2.93;;
82125;SDS011;71668;51.400;6.758;2024-02-21T13:09:34;6.17;;;3.10;;
82125;SDS011;71668;51.400;6.758;2024-02-21T13:12:01;9.50;;;3.20;;
82125;SDS011;71668;51.400;6.758;2024-02-21T13:14:28;8.60;;;3.30;;
82125;SDS011;71668;51.400;6.758;2024-02-21T13:16:56;8.70;;;3.20;;
82125;SDS011;71668;51.400;6.758;2024-02-21T13:19:23;8.03;;;3.70;;
82125;SDS011;71668;51.400;6.758;2024-02-21T13:21:50;8.43;;;3.50;;
82125;SDS011;71668;51.400;6.758;2024-02-21T13:24:17;7.53;;;3.23;;
82125;SDS011;71668;51.400;6.758;2024-02-21T13:26:44;8.50;;;3.70;;
82125;SDS011;71668;51.400;6.758;2024-02-21T13:29:11;7.53;;;2.93;;
82125;SDS011;71668;51.400;6.758;2024-02-21T13:31:38;6.17;;;3.27;;
82125;SDS011;71668;51.400;6.758;2024-02-21T13:34:05;6.17;;;3.30;;
82125;SDS011;71668;51.400;6.758;2024-02-21T13:36:34;8.53;;;3.37;;
82125;SDS011;71668;51.400;6.758;2024-02-21T13:39:01;8.37;;;3.47;;
82125;SDS011;71668;51.400;6.758;2024-02-21T13:41:30;6.20;;;3.47;;
82125;SDS011;71668;51.400;6.758;2024-02-21T13:43:57;8.07;;;3.50;;
82125;SDS011;71668;51.400;6.758;2024-02-21T13:46:26;6.67;;;2.93;;
82125;SDS011;71668;51.400;6.758;2024-02-21T13:48:54;8.80;;;3.30;;
82125;SDS011;71668;51.400;6.758;2024-02-21T13:51:33;7.53;;;3.20;;
82125;SDS011;71668;51.400;6.758;2024-02-21T13:54:02;4.93;;;2.73;;
82125;SDS011;71668;51.400;6.758;2024-02-21T13:56:30;7.07;;;3.20;;
82125;SDS011;71668;51.400;6.758;2024-02-21T13:58:58;6.83;;;3.00;;
82125;SDS011;71668;51.400;6.758;2024-02-21T14:01:26;7.90;;;3.43;;
82125;SDS011;71668;51.400;6.758;2024-02-21T14:03:58;6.20;;;3.10;;
82125;SDS011;71668;51.400;6.758;2024-02-21T14:06:25;6.23;;;3.23;;
82125;SDS011;71668;51.400;6.758;2024-02-21T14:08:52;7.10;;;3.77;;
82125;SDS011;71668;51.400;6.758;2024-02-21T14:11:19;6.53;;;3.27;;
82125;SDS011;71668;51.400;6.758;2024-02-21T14:13:46;8.60;;;3.40;;
82125;SDS011;71668;51.400;6.758;2024-02-21T14:16:13;7.27;;;3.33;;
82125;SDS011;71668;51.400;6.758;2024-02-21T14:18:40;5.93;;;3.30;;
82125;SDS011;71668;51.400;6.758;2024-02-21T14:21:08;6.67;;;2.83;;
82125;SDS011;71668;51.400;6.758;2024-02-21T14:23:38;6.53;;;3.63;;
82125;SDS011;71668;51.400;6.758;2024-02-21T14:26:05;8.67;;;3.30;;
82125;SDS011;71668;51.400;6.758;2024-02-21T14:28:33;9.47;;;3.30;;
82125;SDS011;71668;51.400;6.758;2024-02-21T14:31:00;13.07;;;3.37;;
82125;SDS011;71668;51.400;6.758;2024-02-21T14:33:27;7.63;;;3.37;;
82125;SDS011;71668;51.400;6.758;2024-02-21T14:35:54;8.63;;;3.03;;
82125;SDS011;71668;51.400;6.758;2024-02-21T14:38:21;7.47;;;3.47;;
82125;SDS011;71668;51.400;6.758;2024-02-21T14:40:48;9.20;;;3.50;;
82125;SDS011;71668;51.400;6.758;2024-02-21T14:43:15;8.47;;;3.40;;
82125;SDS011;71668;51.400;6.758;2024-02-21T14:45:41;6.17;;;3.40;;
82125;SDS011;71668;51.400;6.758;2024-02-21T14:48:09;5.80;;;3.17;;